Dn Vatan — TCZN6 — position and weather

sailwx.info

Track history (hours):
 
Tides and Currents Weather Stations Pressure Air Temp Water Temp Dewpoint Dewpoint Depression Visibility Wind Speed Wind Dir Waves Ship Positions

Dn Vatan

Last reported at 2014-Aug-27 15:10 UTC. Time now 2014-Oct-02 06:25 UTC.
Position N 32°47' E 030°54'.
Warning: this ship's position is 35 days out of date.

Length 196 m; draft 6.6 m.

Type: Cargo ship. MMSI: 270991365.

Date/timePositionNaut miles runAvg speedWind from/ knotsBaromVisibWave heightAir tempDewpointWater temp
2014-Aug-27 15:10N 32°47' E 030°54'914.0
2014-Aug-27 14:33N 32°53' E 030°48'3014.0
2014-Aug-27 12:25N 33°16' E 030°25'2713.7
2014-Aug-27 10:26N 33°37' E 030°04'1213.3
2014-Aug-27 09:33N 33°46' E 029°55'1312.7
2014-Aug-27 08:33N 33°56' E 029°45'1313.1
2014-Aug-27 07:33N 34°05' E 029°34'12812.8
2014-Aug-26 21:29N 35°41' E 027°50'1412.8
2014-Aug-26 20:25N 35°51' E 027°39'1213.0
2014-Aug-26 19:28N 36°00' E 027°28'1212.6
2014-Aug-26 18:31N 36°08' E 027°17'1212.6
2014-Aug-26 17:33N 36°17' E 027°06'1512.3
2014-Aug-26 16:17N 36°27' E 026°53'1013.2
2014-Aug-26 15:33N 36°37' E 026°50'1313.0
2014-Aug-26 14:33N 36°50' E 026°45'1313.0
2014-Aug-26 13:33N 37°02' E 026°40'1312.7
2014-Aug-26 12:34N 37°10' E 026°28'1212.2
2014-Aug-26 11:33N 37°17' E 026°15'1212.6
2014-Aug-26 10:33N 37°25' E 026°03'1211.5
2014-Aug-26 09:33N 37°34' E 025°55'1313.4
2014-Aug-26 08:32N 37°48' E 025°52'1913.2
2014-Aug-26 07:07N 38°06' E 025°49'712.9
2014-Aug-26 06:33N 38°13' E 025°48'1812.4
2014-Aug-26 05:05N 38°32' E 025°45'5411.7
2014-Aug-26 00:26N 39°26' E 025°43'1311.8
2014-Aug-25 23:19N 39°39' E 025°44'1012.0
2014-Aug-25 22:31N 39°49' E 025°45'115 5.2
2014-Aug-25 00:17N 40°48' E 027°53'1012.6
2014-Aug-24 23:29N 40°49' E 028°07'1212.6
2014-Aug-24 22:33N 40°51' E 028°22'1212.5
2014-Aug-24 21:33N 40°53' E 028°38'1211.4
2014-Aug-24 20:32N 40°56' E 028°53'4 4.0
2014-Aug-24 19:33N 40°58' E 028°57'18 8.8
2014-Aug-24 17:32N 41°14' E 029°08'9 8.8
2014-Aug-24 16:33N 41°21' E 029°01'0 0.3
2014-Aug-24 15:32N 41°21' E 029°01'0 0.2
2014-Aug-24 14:32N 41°21' E 029°01'401 8.5
2014-Aug-22 15:31N 45°04' E 036°39'0 0.0
2014-Aug-22 14:29N 45°04' E 036°39'0 0.0
2014-Aug-22 13:31N 45°04' E 036°39'  
Track history (hours):
 
Tides and Currents Weather Stations Pressure Air Temp Water Temp Dewpoint Dewpoint Depression Visibility Wind Speed Wind Dir Waves Ship Positions

Dn Vatan

Last reported at 2014-Aug-27 15:10 UTC. Time now 2014-Oct-02 06:25 UTC.
Position N 32°47' E 030°54'.
Warning: this ship's position is 35 days out of date.

Length 196 m; draft 6.6 m.

Type: Cargo ship. MMSI: 270991365.

Date/timePositionNaut miles runAvg speedWind from/ knotsBaromVisibWave heightAir tempDewpointWater temp
2014-Aug-27 15:10N 32°47' E 030°54'914.0
2014-Aug-27 14:33N 32°53' E 030°48'3014.0
2014-Aug-27 12:25N 33°16' E 030°25'2713.7
2014-Aug-27 10:26N 33°37' E 030°04'1213.3
2014-Aug-27 09:33N 33°46' E 029°55'1312.7
2014-Aug-27 08:33N 33°56' E 029°45'1313.1
2014-Aug-27 07:33N 34°05' E 029°34'12812.8
2014-Aug-26 21:29N 35°41' E 027°50'1412.8
2014-Aug-26 20:25N 35°51' E 027°39'1213.0
2014-Aug-26 19:28N 36°00' E 027°28'1212.6
2014-Aug-26 18:31N 36°08' E 027°17'1212.6
2014-Aug-26 17:33N 36°17' E 027°06'1512.3
2014-Aug-26 16:17N 36°27' E 026°53'1013.2
2014-Aug-26 15:33N 36°37' E 026°50'1313.0
2014-Aug-26 14:33N 36°50' E 026°45'1313.0
2014-Aug-26 13:33N 37°02' E 026°40'1312.7
2014-Aug-26 12:34N 37°10' E 026°28'1212.2
2014-Aug-26 11:33N 37°17' E 026°15'1212.6
2014-Aug-26 10:33N 37°25' E 026°03'1211.5
2014-Aug-26 09:33N 37°34' E 025°55'1313.4
2014-Aug-26 08:32N 37°48' E 025°52'1913.2
2014-Aug-26 07:07N 38°06' E 025°49'712.9
2014-Aug-26 06:33N 38°13' E 025°48'1812.4
2014-Aug-26 05:05N 38°32' E 025°45'5411.7
2014-Aug-26 00:26N 39°26' E 025°43'1311.8
2014-Aug-25 23:19N 39°39' E 025°44'1012.0
2014-Aug-25 22:31N 39°49' E 025°45'115 5.2
2014-Aug-25 00:17N 40°48' E 027°53'1012.6
2014-Aug-24 23:29N 40°49' E 028°07'1212.6
2014-Aug-24 22:33N 40°51' E 028°22'1212.5
2014-Aug-24 21:33N 40°53' E 028°38'1211.4
2014-Aug-24 20:32N 40°56' E 028°53'4 4.0
2014-Aug-24 19:33N 40°58' E 028°57'18 8.8
2014-Aug-24 17:32N 41°14' E 029°08'9 8.8
2014-Aug-24 16:33N 41°21' E 029°01'0 0.3
2014-Aug-24 15:32N 41°21' E 029°01'0 0.2
2014-Aug-24 14:32N 41°21' E 029°01'401 8.5
2014-Aug-22 15:31N 45°04' E 036°39'0 0.0
2014-Aug-22 14:29N 45°04' E 036°39'0 0.0
2014-Aug-22 13:31N 45°04' E 036°39'  

Dump ship's entire track history